Time;durP1;ratioP1;P1;durP2;ratioP2;P2;SDS_P1;SDS_P2;PMS_P1;PMS_P2;Temp;Humidity;BMP_temperature;BMP_pressure;BME280_temperature;BME280_humidity;BME280_pressure;Samples;Min_cycle;Max_cycle;Signal;HPM_P1;HPM_P2
2023/04/28 00:00:23;;;;;;;;;6.00;6.00;;;;;-150.52;100.00;63513.88;2030523;27;2733591;-76
2023/04/28 00:01:36;;;;;;;;;7.83;6.17;;;;;-150.52;100.00;63513.88;2032301;27;2746103;-76
2023/04/28 00:02:47;;;;;;;;;5.00;5.00;;;;;-150.52;100.00;63513.88;2003889;27;2739910;-76
2023/04/28 00:04:01;;;;;;;;;6.00;6.00;;;;;-150.52;100.00;63513.88;2053696;27;2736727;-76
2023/04/28 00:05:11;;;;;;;;;6.33;3.33;;;;;-150.52;100.00;63513.88;2008197;27;2749214;-76
2023/04/28 00:06:22;;;;;;;;;5.00;5.00;;;;;-150.52;100.00;63513.88;2051565;27;2748173;-76
2023/04/28 00:07:33;;;;;;;;;7.00;7.00;;;;;-150.52;100.00;63513.88;2059913;27;2736730;-76
2023/04/28 00:08:44;;;;;;;;;5.67;5.33;;;;;-150.52;100.00;63513.88;2012699;27;2742993;-76
2023/04/28 00:09:55;;;;;;;;;8.00;7.00;;;;;-150.52;100.00;63513.88;2050558;28;2734652;-76
2023/04/28 00:11:09;;;;;;;;;8.00;6.00;;;;;-150.52;100.00;63513.88;2022689;27;2746103;-76
2023/04/28 00:12:20;;;;;;;;;8.33;6.67;;;;;-150.52;100.00;63513.88;2032482;27;2739863;-76
2023/04/28 00:13:31;;;;;;;;;9.67;7.33;;;;;-150.52;100.00;63513.88;2046557;27;3467956;-76
2023/04/28 00:14:42;;;;;;;;;9.33;7.67;;;;;-150.52;100.00;63513.88;2048606;27;2743570;-76
2023/04/28 00:15:53;;;;;;;;;5.67;5.00;;;;;-150.52;100.00;63513.88;2046373;27;2746090;-76
2023/04/28 00:17:03;;;;;;;;;5.67;5.00;;;;;-150.52;100.00;63513.88;2035928;27;2748188;-76
2023/04/28 00:18:15;;;;;;;;;3.67;3.67;;;;;-150.52;100.00;63513.88;2060441;27;2735686;-76
2023/04/28 00:19:28;;;;;;;;;7.17;6.67;;;;;-150.52;100.00;63513.88;2028030;28;2735778;-76
2023/04/28 00:20:38;;;;;;;;;7.33;5.00;;;;;-150.52;100.00;63513.88;1995196;28;2748180;-76
2023/04/28 00:21:49;;;;;;;;;6.00;6.00;;;;;-150.52;100.00;63513.88;2042841;28;2734063;-76
2023/04/28 00:23:03;;;;;;;;;7.50;5.83;;;;;-150.52;100.00;63513.88;2047152;27;2735687;-76
2023/04/28 00:24:13;;;;;;;;;6.00;5.33;;;;;-150.52;100.00;63513.88;2002352;28;2743013;-76
2023/04/28 00:25:24;;;;;;;;;6.67;6.67;;;;;-150.52;100.00;63513.88;2051932;27;2737763;-76
2023/04/28 00:26:37;;;;;;;;;6.33;6.17;;;;;-150.52;100.00;63513.88;2060294;27;2733683;-76
2023/04/28 00:27:48;;;;;;;;;7.33;5.00;;;;;-150.52;100.00;63513.88;2004863;27;2750300;-76
2023/04/28 00:28:59;;;;;;;;;5.00;4.67;;;;;-150.52;100.00;63513.88;2058857;27;2741932;-76
2023/04/28 00:30:10;;;;;;;;;7.50;7.00;;;;;-150.52;100.00;63513.88;2025124;27;1819068;-76
2023/04/28 00:31:23;;;;;;;;;6.83;5.83;;;;;-150.52;100.00;63513.88;2058758;27;2736024;-77
2023/04/28 00:32:34;;;;;;;;;4.67;4.67;;;;;-150.52;100.00;63513.88;2001510;27;3460704;-76
2023/04/28 00:33:45;;;;;;;;;5.67;5.33;;;;;-150.52;100.00;63513.88;2045255;27;2740436;-76
2023/04/28 00:34:56;;;;;;;;;7.00;4.33;;;;;-150.52;100.00;63513.88;2048856;27;2750312;-77
2023/04/28 00:36:10;;;;;;;;;6.33;6.17;;;;;-150.52;100.00;63513.88;2053382;27;2734659;-76
2023/04/28 00:37:23;;;;;;;;;6.67;5.67;;;;;-150.52;100.00;63513.88;2037475;27;2740917;-77
2023/04/28 00:38:36;;;;;;;;;7.00;5.00;;;;;-150.52;100.00;63513.88;2036359;27;2745061;-77
2023/04/28 00:39:54;;;;;;;;;7.67;7.67;;;;;-150.52;100.00;63513.88;2028675;28;2738814;-77
2023/04/28 00:41:05;;;;;;;;;4.00;4.00;;;;;-150.52;100.00;63513.88;2002651;27;2747675;-77
2023/04/28 00:42:17;;;;;;;;;5.80;5.80;;;;;-150.52;100.00;63513.88;2051573;27;2738870;-76
2023/04/28 00:43:31;;;;;;;;;4.33;4.33;;;;;-150.52;100.00;63513.88;2050246;28;2730505;-75
2023/04/28 00:44:41;;;;;;;;;3.00;3.00;;;;;-150.52;100.00;63513.88;2003986;27;2752344;-74
2023/04/28 00:45:52;;;;;;;;;6.67;4.67;;;;;-150.52;100.00;63513.88;2044576;27;3459611;-74
2023/04/28 00:47:04;;;;;;;;;6.25;5.00;;;;;-150.52;100.00;63513.88;2059656;27;2744022;-74
2023/04/28 00:48:15;;;;;;;;;5.33;4.00;;;;;-150.52;100.00;63513.88;2034736;27;2748181;-74
2023/04/28 00:49:26;;;;;;;;;5.00;5.00;;;;;-150.52;100.00;63513.88;2034993;27;2737791;-75
2023/04/28 00:50:37;;;;;;;;;7.00;5.33;;;;;-150.52;100.00;63513.88;2038690;27;2745147;-74
2023/04/28 00:51:48;;;;;;;;;6.00;6.00;;;;;-150.52;100.00;63513.88;2040795;27;2746127;-74
2023/04/28 00:52:59;;;;;;;;;5.67;5.00;;;;;-150.52;100.00;63513.88;2041441;27;2745070;-74
2023/04/28 00:54:12;;;;;;;;;6.00;4.67;;;;;-150.52;100.00;63513.88;2034792;27;2748249;-74
2023/04/28 00:55:30;;;;;;;;;5.00;5.00;;;;;-150.52;100.00;63513.88;2052129;28;2739872;-74
2023/04/28 00:56:44;;;;;;;;;4.67;4.67;;;;;-150.52;100.00;63513.88;2031720;27;2739852;-74
2023/04/28 00:57:58;;;;;;;;;7.33;6.67;;;;;-150.52;100.00;63513.88;2038733;27;2745052;-74
2023/04/28 00:59:11;;;;;;;;;5.50;5.50;;;;;-150.52;100.00;63513.88;2038587;27;2732572;-74
2023/04/28 01:00:24;;;;;;;;;5.50;5.17;;;;;-150.52;100.00;63513.88;2029844;28;2741941;-74
2023/04/28 01:01:35;;;;;;;;;5.00;5.00;;;;;-150.52;100.00;63513.88;2004136;27;2743595;-74
2023/04/28 01:02:46;;;;;;;;;6.00;6.00;;;;;-150.52;100.00;63513.88;2036018;27;2748204;-74
2023/04/28 01:03:57;;;;;;;;;8.67;5.00;;;;;-150.52;100.00;63513.88;2051543;27;2751415;-74
2023/04/28 01:05:09;;;;;;;;;6.00;5.33;;;;;-150.52;100.00;63513.88;2061400;27;2735696;-74
2023/04/28 01:06:22;;;;;;;;;5.83;4.17;;;;;-150.52;100.00;63513.88;2038465;27;2740871;-74
2023/04/28 01:07:33;;;;;;;;;5.00;5.00;;;;;-150.52;100.00;63513.88;2002532;28;3463772;-74
2023/04/28 01:08:47;;;;;;;;;5.00;4.00;;;;;-150.52;100.00;63513.88;2028147;27;2745045;-74
2023/04/28 01:09:57;;;;;;;;;3.33;3.33;;;;;-150.52;100.00;63513.88;2027554;28;2754445;-74
2023/04/28 01:11:13;;;;;;;;;5.67;5.00;;;;;-150.52;100.00;63513.88;2044961;27;2745089;-74
2023/04/28 01:12:23;;;;;;;;;5.00;5.00;;;;;-150.52;100.00;63513.88;2035639;27;2750251;-74
2023/04/28 01:13:35;;;;;;;;;4.50;4.50;;;;;-150.52;100.00;63513.88;2059038;27;2746091;-74
2023/04/28 01:14:46;;;;;;;;;4.00;4.00;;;;;-150.52;100.00;63513.88;2035136;27;2742982;-74
2023/04/28 01:15:59;;;;;;;;;4.00;4.00;;;;;-150.52;100.00;63513.88;2062012;27;2746612;-74
2023/04/28 01:17:10;;;;;;;;;5.67;4.33;;;;;-150.52;100.00;63513.88;2014009;27;2746106;-74
2023/04/28 01:18:24;;;;;;;;;3.00;2.83;;;;;-150.52;100.00;63513.88;2062380;27;2739879;-74
2023/04/28 01:19:37;;;;;;;;;5.83;5.33;;;;;-150.52;100.00;63513.88;2037964;27;2750266;-74
2023/04/28 01:20:47;;;;;;;;;4.00;4.00;;;;;-150.52;100.00;63513.88;2008241;27;2754520;-74
2023/04/28 01:21:58;;;;;;;;;6.67;5.00;;;;;-150.52;100.00;63513.88;2059017;27;2735148;-74
2023/04/28 01:23:16;;;;;;;;;4.00;4.00;;;;;-150.52;100.00;63513.88;2035606;27;2743038;-74
2023/04/28 01:24:27;;;;;;;;;4.00;4.00;;;;;-150.52;100.00;63513.88;2027738;28;2750293;-74
2023/04/28 01:25:38;;;;;;;;;7.00;6.00;;;;;-150.52;100.00;63513.88;2059103;27;2742993;-74
2023/04/28 01:26:48;;;;;;;;;3.67;3.67;;;;;-150.52;100.00;63513.88;2002905;28;2748305;-74
2023/04/28 01:27:59;;;;;;;;;4.00;4.00;;;;;-150.52;100.00;63513.88;2053386;27;2731524;-74
2023/04/28 01:29:10;;;;;;;;;5.67;4.00;;;;;-150.52;100.00;63513.88;2009774;27;3461707;-74
2023/04/28 01:30:21;;;;;;;;;4.33;4.33;;;;;-150.52;100.00;63513.88;2049593;27;2746153;-74
2023/04/28 01:31:32;;;;;;;;;5.00;4.25;;;;;-150.52;100.00;63513.88;2043978;28;2727364;-74
2023/04/28 01:32:43;;;;;;;;;5.00;5.00;;;;;-150.52;100.00;63513.88;2025533;27;2745052;-74
2023/04/28 01:33:54;;;;;;;;;3.00;3.00;;;;;-150.52;100.00;63513.88;2053093;27;2746122;-74
2023/04/28 01:35:05;;;;;;;;;5.67;5.67;;;;;-150.52;100.00;63513.88;2049854;27;3447132;-74
2023/04/28 01:36:18;;;;;;;;;4.40;4.00;;;;;-150.52;100.00;63513.88;2052195;28;2751783;-75
2023/04/28 01:37:31;;;;;;;;;6.83;5.50;;;;;-150.52;100.00;63513.88;2031802;27;2741256;-74
2023/04/28 01:38:44;;;;;;;;;6.00;6.00;;;;;-150.52;100.00;63513.88;2029236;28;2735693;-74
2023/04/28 01:39:54;;;;;;;;;4.33;4.33;;;;;-150.52;100.00;63513.88;2005360;27;2746154;-74
2023/04/28 01:41:05;;;;;;;;;6.00;4.67;;;;;-150.52;100.00;63513.88;2043552;28;2742994;-74
2023/04/28 01:42:19;;;;;;;;;6.33;6.00;;;;;-150.52;100.00;63513.88;2051656;27;2735720;-74
2023/04/28 01:43:32;;;;;;;;;5.67;5.67;;;;;-150.52;100.00;63513.88;2037687;27;2742993;-74
2023/04/28 01:44:45;;;;;;;;;4.00;4.00;;;;;-150.52;100.00;63513.88;2037389;27;2737816;-74
2023/04/28 01:45:56;;;;;;;;;6.33;5.33;;;;;-150.52;100.00;63513.88;2011815;27;2734660;-74
2023/04/28 01:47:07;;;;;;;;;4.00;4.00;;;;;-150.52;100.00;63513.88;2051519;28;2748213;-74
2023/04/28 01:48:17;;;;;;;;;5.00;5.00;;;;;-150.52;100.00;63513.88;2027784;27;2746195;-74
2023/04/28 01:49:28;;;;;;;;;8.00;4.00;;;;;-150.52;100.00;63513.88;2051795;27;2746162;-74
2023/04/28 01:50:39;;;;;;;;;5.00;5.00;;;;;-150.52;100.00;63513.88;2040790;27;2746142;-74
2023/04/28 01:51:50;;;;;;;;;5.00;5.00;;;;;-150.52;100.00;63513.88;2044537;27;2751377;-74
2023/04/28 01:53:01;;;;;;;;;5.67;5.00;;;;;-150.52;100.00;63513.88;2053597;27;2737765;-74
2023/04/28 01:54:14;;;;;;;;;6.50;6.00;;;;;-150.52;100.00;63513.88;2038507;27;2734674;-74
2023/04/28 01:55:27;;;;;;;;;4.00;4.00;;;;;-150.52;100.00;63513.88;2036478;27;2749230;-74
2023/04/28 01:56:41;;;;;;;;;6.83;5.83;;;;;-150.52;100.00;63513.88;2029197;28;2737777;-74
2023/04/28 01:57:54;;;;;;;;;6.50;6.50;;;;;-150.52;100.00;63513.88;2030420;27;2734636;-74
2023/04/28 01:59:07;;;;;;;;;4.83;4.83;;;;;-150.52;100.00;63513.88;2038179;27;2740934;-75
2023/04/28 02:00:18;;;;;;;;;5.33;4.00;;;;;-150.52;100.00;63513.88;2003200;28;2752388;-74
2023/04/28 02:01:28;;;;;;;;;7.00;6.00;;;;;-150.52;100.00;63513.88;2041055;27;2749356;-74
2023/04/28 02:02:40;;;;;;;;;3.33;3.00;;;;;-150.52;100.00;63513.88;2051333;28;2739859;-75
2023/04/28 02:03:50;;;;;;;;;6.67;4.67;;;;;-150.52;100.00;63513.88;1996773;28;2742989;-74
2023/04/28 02:05:01;;;;;;;;;5.00;5.00;;;;;-150.52;100.00;63513.88;2036334;27;2745061;-74
2023/04/28 02:06:12;;;;;;;;;4.33;4.33;;;;;-150.52;100.00;63513.88;2039826;28;2740886;-74
2023/04/28 02:07:23;;;;;;;;;6.00;4.33;;;;;-150.52;100.00;63513.88;2040017;27;2746175;-75
2023/04/28 02:08:34;;;;;;;;;4.00;4.00;;;;;-150.52;100.00;63513.88;2041542;27;2746196;-75
2023/04/28 02:09:46;;;;;;;;;6.75;5.00;;;;;-150.52;100.00;63513.88;2046448;28;2746154;-74
2023/04/28 02:10:57;;;;;;;;;4.67;4.67;;;;;-150.52;100.00;63513.88;2005088;27;2747166;-74
2023/04/28 02:12:09;;;;;;;;;4.80;4.80;;;;;-150.52;100.00;63513.88;2060831;27;2736739;-74
2023/04/28 02:13:23;;;;;;;;;5.00;3.00;;;;;-150.52;100.00;63513.88;2033757;27;2748186;-74
2023/04/28 02:14:33;;;;;;;;;5.00;4.33;;;;;-150.52;100.00;63513.88;2011921;27;2750272;-74
2023/04/28 02:15:44;;;;;;;;;4.33;4.00;;;;;-150.52;100.00;63513.88;2060439;27;2746097;-74
2023/04/28 02:16:58;;;;;;;;;4.33;4.33;;;;;-150.52;100.00;63513.88;2037731;27;2738822;-74
2023/04/28 02:18:09;;;;;;;;;4.00;4.00;;;;;-150.52;100.00;63513.88;2003653;28;2749241;-75
2023/04/28 02:19:19;;;;;;;;;6.00;4.00;;;;;-150.52;100.00;63513.88;2027747;27;2754491;-74
2023/04/28 02:20:30;;;;;;;;;4.67;4.67;;;;;-150.52;100.00;63513.88;2044463;27;2736712;-74
2023/04/28 02:21:42;;;;;;;;;4.33;4.33;;;;;-150.52;100.00;63513.88;2042193;27;2752396;-75
2023/04/28 02:22:55;;;;;;;;;4.50;4.00;;;;;-150.52;100.00;63513.88;2044459;28;2733598;-74
2023/04/28 02:24:08;;;;;;;;;7.00;4.00;;;;;-150.52;100.00;63513.88;2054353;27;2740902;-74
2023/04/28 02:25:19;;;;;;;;;5.00;5.00;;;;;-150.52;100.00;63513.88;1996055;28;2746110;-74
2023/04/28 02:26:30;;;;;;;;;5.00;5.00;;;;;-150.52;100.00;63513.88;2047468;27;2739876;-74
2023/04/28 02:27:43;;;;;;;;;2.67;2.00;;;;;-150.52;100.00;63513.88;2061402;27;2737765;-75
2023/04/28 02:28:56;;;;;;;;;2.83;2.83;;;;;-150.52;100.00;63513.88;2037291;27;2726292;-74
2023/04/28 02:30:09;;;;;;;;;3.67;3.67;;;;;-150.52;100.00;63513.88;2037415;27;2746125;-74
2023/04/28 02:31:20;;;;;;;;;5.00;4.00;;;;;-150.52;100.00;63513.88;2002917;28;2752375;-74
2023/04/28 02:32:31;;;;;;;;;3.67;3.00;;;;;-150.52;100.00;63513.88;2052605;27;2746094;-74
2023/04/28 02:33:44;;;;;;;;;3.33;3.33;;;;;-150.52;100.00;63513.88;2031400;27;2744034;-74
2023/04/28 02:34:58;;;;;;;;;5.33;3.33;;;;;-150.52;100.00;63513.88;2037657;27;2747482;-74
2023/04/28 02:36:09;;;;;;;;;3.00;3.00;;;;;-150.52;100.00;63513.88;2010531;27;2750383;-74
2023/04/28 02:37:20;;;;;;;;;6.00;5.00;;;;;-150.52;100.00;63513.88;2027112;28;2741283;-74
2023/04/28 02:38:30;;;;;;;;;3.67;3.67;;;;;-150.52;100.00;63513.88;2029563;27;2743047;-74
2023/04/28 02:39:42;;;;;;;;;4.00;4.00;;;;;-150.52;100.00;63513.88;2033867;28;2754610;-74
2023/04/28 02:41:03;;;;;;;;;4.00;2.83;;;;;-150.52;100.00;63513.88;2050413;27;2737766;-75
2023/04/28 02:42:17;;;;;;;;;3.33;3.33;;;;;-150.52;100.00;63513.88;2029685;28;2735685;-74
2023/04/28 02:43:33;;;;;;;;;2.83;2.83;;;;;-150.52;100.00;63513.88;2026194;28;2745099;-74
2023/04/28 02:44:43;;;;;;;;;3.00;2.33;;;;;-150.52;100.00;63513.88;2011694;27;2750256;-74
2023/04/28 02:45:54;;;;;;;;;3.00;3.00;;;;;-150.52;100.00;63513.88;2043396;28;2745056;-74
2023/04/28 02:47:06;;;;;;;;;3.75;3.75;;;;;-150.52;100.00;63513.88;2052662;27;2752342;-74
2023/04/28 02:48:19;;;;;;;;;2.00;2.00;;;;;-150.52;100.00;63513.88;2061526;27;2747163;-74
2023/04/28 02:49:33;;;;;;;;;6.67;4.00;;;;;-150.52;100.00;63513.88;2037829;27;2750319;-74
2023/04/28 02:50:46;;;;;;;;;3.67;2.00;;;;;-150.52;100.00;63513.88;2037573;27;2734628;-74
2023/04/28 02:51:59;;;;;;;;;3.83;3.00;;;;;-150.52;100.00;63513.88;2033489;27;2751305;-74
2023/04/28 02:53:12;;;;;;;;;3.83;2.33;;;;;-150.52;100.00;63513.88;2037430;27;2748269;-75
2023/04/28 02:54:29;;;;;;;;;3.33;3.33;;;;;-150.52;100.00;63513.88;2011778;27;3463779;-74
2023/04/28 02:55:39;;;;;;;;;2.00;2.00;;;;;-150.52;100.00;63513.88;2035533;27;2750654;-74
2023/04/28 02:56:50;;;;;;;;;3.00;3.00;;;;;-150.52;100.00;63513.88;2061641;27;2731535;-74
2023/04/28 02:58:03;;;;;;;;;1.33;1.33;;;;;-150.52;100.00;63513.88;2034739;27;2737816;-74
2023/04/28 02:59:16;;;;;;;;;2.00;2.00;;;;;-150.52;100.00;63513.88;2052102;28;2735675;-74
2023/04/28 03:00:30;;;;;;;;;2.17;2.17;;;;;-150.52;100.00;63513.88;2029722;27;2739186;-74
2023/04/28 03:01:43;;;;;;;;;1.00;1.00;;;;;-150.52;100.00;63513.88;2039081;27;2731562;-74
2023/04/28 03:02:56;;;;;;;;;2.00;1.50;;;;;-150.52;100.00;63513.88;2037226;27;2723198;-74
2023/04/28 03:04:09;;;;;;;;;2.00;2.00;;;;;-150.52;100.00;63513.88;2029397;28;2736803;-74
2023/04/28 03:05:22;;;;;;;;;1.33;1.33;;;;;-150.52;100.00;63513.88;2029945;27;2734011;-74
2023/04/28 03:06:36;;;;;;;;;3.33;1.17;;;;;-150.52;100.00;63513.88;2038034;27;2726300;-74
2023/04/28 03:07:46;;;;;;;;;2.00;2.00;;;;;-150.52;100.00;63513.88;2011538;27;2754432;-75
2023/04/28 03:08:57;;;;;;;;;1.67;1.67;;;;;-150.52;100.00;63513.88;2061860;27;2727384;-74
2023/04/28 03:10:10;;;;;;;;;1.00;1.00;;;;;-150.52;100.00;63513.88;2051283;28;2722172;-74
2023/04/28 03:11:23;;;;;;;;;1.17;1.17;;;;;-150.52;100.00;63513.88;2028866;28;2735690;-74
2023/04/28 03:12:37;;;;;;;;;1.00;1.00;;;;;-150.52;100.00;63513.88;2030922;27;2731524;-74
2023/04/28 03:13:50;;;;;;;;;1.83;1.83;;;;;-150.52;100.00;63513.88;2039198;27;2728406;-74
2023/04/28 03:15:04;;;;;;;;;1.17;1.17;;;;;-150.52;100.00;63513.88;2029503;28;2734661;-75
2023/04/28 03:16:17;;;;;;;;;1.67;1.67;;;;;-150.52;100.00;63513.88;2054420;27;2741947;-74
2023/04/28 03:17:31;;;;;;;;;1.33;1.33;;;;;-150.52;100.00;63513.88;2029529;28;2725289;-74
2023/04/28 03:18:44;;;;;;;;;1.83;1.00;;;;;-150.52;100.00;63513.88;2023303;28;2733633;-74
2023/04/28 03:19:57;;;;;;;;;1.33;1.33;;;;;-150.52;100.00;63513.88;2028537;28;2725285;-75
2023/04/28 03:21:10;;;;;;;;;1.33;1.33;;;;;-150.52;100.00;63513.88;2030358;27;2728485;-74
2023/04/28 03:22:23;;;;;;;;;2.50;1.00;;;;;-150.52;100.00;63513.88;2030269;28;2722184;-74
2023/04/28 03:23:36;;;;;;;;;1.67;1.67;;;;;-150.52;100.00;63513.88;2056005;27;2733615;-74
2023/04/28 03:24:50;;;;;;;;;2.17;1.83;;;;;-150.52;100.00;63513.88;2020834;28;2731574;-74
2023/04/28 03:26:03;;;;;;;;;0.50;0.50;;;;;-150.52;100.00;63513.88;2030405;27;2726335;-74
2023/04/28 03:27:16;;;;;;;;;2.17;1.33;;;;;-150.52;100.00;63513.88;2036613;27;2726815;-75
2023/04/28 03:28:29;;;;;;;;;2.00;2.00;;;;;-150.52;100.00;63513.88;2029445;27;2745101;-74
2023/04/28 03:29:42;;;;;;;;;1.67;1.00;;;;;-150.52;100.00;63513.88;2021943;28;2725281;-74
2023/04/28 03:30:56;;;;;;;;;1.33;1.33;;;;;-150.52;100.00;63513.88;2028133;28;2741241;-74
2023/04/28 03:32:09;;;;;;;;;1.00;1.00;;;;;-150.52;100.00;63513.88;2025346;28;2733072;-75
2023/04/28 03:33:22;;;;;;;;;1.00;1.00;;;;;-150.52;100.00;63513.88;2032570;27;2726327;-74
2023/04/28 03:34:36;;;;;;;;;1.00;1.00;;;;;-150.52;100.00;63513.88;2038658;27;2732557;-74
2023/04/28 03:35:49;;;;;;;;;1.00;1.00;;;;;-150.52;100.00;63513.88;2030453;28;2731520;-74
2023/04/28 03:37:03;;;;;;;;;1.00;1.00;;;;;-150.52;100.00;63513.88;2031428;27;2726342;-74
2023/04/28 03:38:16;;;;;;;;;1.00;1.00;;;;;-150.52;100.00;63513.88;2062324;27;2725628;-75
2023/04/28 03:39:29;;;;;;;;;0.00;0.00;;;;;-150.52;100.00;63513.88;2038390;27;2722177;-74
2023/04/28 03:40:42;;;;;;;;;1.00;1.00;;;;;-150.52;100.00;63513.88;2039489;27;2720077;-74
2023/04/28 03:41:55;;;;;;;;;1.00;1.00;;;;;-150.52;100.00;63513.88;2062071;27;2733599;-74
2023/04/28 03:43:09;;;;;;;;;1.00;1.00;;;;;-150.52;100.00;63513.88;2061557;27;2725257;-74
2023/04/28 03:44:22;;;;;;;;;1.33;1.33;;;;;-150.52;100.00;63513.88;2037551;27;2724235;-75
2023/04/28 03:45:36;;;;;;;;;1.33;1.00;;;;;-150.52;100.00;63513.88;2039347;27;2724209;-74
2023/04/28 03:46:49;;;;;;;;;1.00;1.00;;;;;-150.52;100.00;63513.88;2036928;27;2725270;-74
2023/04/28 03:48:02;;;;;;;;;1.00;1.00;;;;;-150.52;100.00;63513.88;2038953;27;2725281;-75
2023/04/28 03:49:15;;;;;;;;;1.00;1.00;;;;;-150.52;100.00;63513.88;2038767;27;2725265;-75
2023/04/28 03:50:29;;;;;;;;;1.67;1.67;;;;;-150.52;100.00;63513.88;2038478;27;2737757;-75
2023/04/28 03:51:42;;;;;;;;;1.00;1.00;;;;;-150.52;100.00;63513.88;2035276;27;2724249;-75
2023/04/28 03:52:55;;;;;;;;;0.50;0.33;;;;;-150.52;100.00;63513.88;2022486;28;2729433;-75
2023/04/28 03:54:08;;;;;;;;;1.17;1.17;;;;;-150.52;100.00;63513.88;2029921;27;2729436;-77
2023/04/28 03:55:21;;;;;;;;;0.83;0.83;;;;;-150.52;100.00;63513.88;2038240;27;2728406;-77
2023/04/28 03:56:35;;;;;;;;;1.00;1.00;;;;;-150.52;100.00;63513.88;2037610;27;2725300;-77
2023/04/28 03:57:48;;;;;;;;;1.00;1.00;;;;;-150.52;100.00;63513.88;2039139;27;2725289;-77
2023/04/28 03:59:01;;;;;;;;;0.67;0.67;;;;;-150.52;100.00;63513.88;2038790;27;2727388;-77
2023/04/28 04:00:15;;;;;;;;;0.67;0.33;;;;;-150.52;100.00;63513.88;2030212;28;2724693;-77
2023/04/28 04:01:28;;;;;;;;;1.17;0.83;;;;;-150.52;100.00;63513.88;2027866;28;2730466;-77
2023/04/28 04:02:41;;;;;;;;;1.33;1.00;;;;;-150.52;100.00;63513.88;2025332;27;2726316;-77
2023/04/28 04:03:54;;;;;;;;;1.00;1.00;;;;;-150.52;100.00;63513.88;2037340;27;2727358;-77
2023/04/28 04:05:07;;;;;;;;;1.00;1.00;;;;;-150.52;100.00;63513.88;2030050;28;2722137;-77
2023/04/28 04:06:21;;;;;;;;;0.50;0.50;;;;;-150.52;100.00;63513.88;2030478;27;2725339;-77
2023/04/28 04:07:34;;;;;;;;;1.00;1.00;;;;;-150.52;100.00;63513.88;2038250;27;2731551;-77
2023/04/28 04:08:48;;;;;;;;;0.83;0.83;;;;;-150.52;100.00;63513.88;2056175;27;2726308;-77
2023/04/28 04:10:01;;;;;;;;;1.00;1.00;;;;;-150.52;100.00;63513.88;2024152;28;2725289;-77
2023/04/28 04:11:14;;;;;;;;;1.00;1.00;;;;;-150.52;100.00;63513.88;2046498;28;2729460;-77
2023/04/28 04:12:28;;;;;;;;;0.50;0.50;;;;;-150.52;100.00;63513.88;2023481;28;2725294;-77
2023/04/28 04:13:41;;;;;;;;;1.17;1.17;;;;;-150.52;100.00;63513.88;2022528;28;2729491;-77
2023/04/28 04:14:54;;;;;;;;;1.00;1.00;;;;;-150.52;100.00;63513.88;2023599;28;2726709;-78
2023/04/28 04:16:07;;;;;;;;;1.00;1.00;;;;;-150.52;100.00;63513.88;2029304;27;2735686;-78
2023/04/28 04:17:20;;;;;;;;;0.33;0.33;;;;;-150.52;100.00;63513.88;2039102;27;2726783;-78
2023/04/28 04:18:34;;;;;;;;;1.67;1.00;;;;;-150.52;100.00;63513.88;2037539;27;2729479;-77
2023/04/28 04:19:47;;;;;;;;;2.67;1.00;;;;;-150.52;100.00;63513.88;2061593;27;2732568;-77
2023/04/28 04:21:00;;;;;;;;;1.33;1.00;;;;;-150.52;100.00;63513.88;2028461;28;2723190;-77
2023/04/28 04:22:14;;;;;;;;;0.00;0.00;;;;;-150.52;100.00;63513.88;2055014;27;2722165;-77
2023/04/28 04:23:27;;;;;;;;;1.67;1.67;;;;;-150.52;100.00;63513.88;2030056;28;2721120;-77
2023/04/28 04:24:40;;;;;;;;;0.67;0.33;;;;;-150.52;100.00;63513.88;2023056;28;2725273;-77
2023/04/28 04:25:54;;;;;;;;;1.83;1.17;;;;;-150.52;100.00;63513.88;2029167;28;2726332;-77
2023/04/28 04:27:07;;;;;;;;;0.33;0.33;;;;;-150.52;100.00;63513.88;2026921;28;2729437;-77
2023/04/28 04:28:20;;;;;;;;;1.33;1.00;;;;;-150.52;100.00;63513.88;2021850;28;2721477;-77
2023/04/28 04:29:33;;;;;;;;;1.50;1.00;;;;;-150.52;100.00;63513.88;2054724;27;2720096;-78
2023/04/28 04:30:46;;;;;;;;;0.67;0.67;;;;;-150.52;100.00;63513.88;2039113;27;2724693;-77
2023/04/28 04:32:00;;;;;;;;;2.83;1.17;;;;;-150.52;100.00;63513.88;2029277;28;2730470;-77
2023/04/28 04:33:13;;;;;;;;;1.00;1.00;;;;;-150.52;100.00;63513.88;2030724;28;2726335;-77
2023/04/28 04:34:26;;;;;;;;;0.83;0.83;;;;;-150.52;100.00;63513.88;2030818;28;2733594;-77
2023/04/28 04:35:39;;;;;;;;;0.00;0.00;;;;;-150.52;100.00;63513.88;2034382;27;2726307;-77
2023/04/28 04:36:52;;;;;;;;;0.00;0.00;;;;;-150.52;100.00;63513.88;2063601;27;2733618;-77
2023/04/28 04:38:06;;;;;;;;;0.83;0.83;;;;;-150.52;100.00;63513.88;2039002;27;2722148;-77
2023/04/28 04:39:19;;;;;;;;;1.67;1.67;;;;;-150.52;100.00;63513.88;2053965;28;2735682;-78
2023/04/28 04:40:32;;;;;;;;;1.50;1.00;;;;;-150.52;100.00;63513.88;2031494;27;2729939;-77
2023/04/28 04:41:45;;;;;;;;;1.83;1.00;;;;;-150.52;100.00;63513.88;2030373;28;2730474;-77
2023/04/28 04:43:00;;;;;;;;;1.00;0.50;;;;;-150.52;100.00;63513.88;2023260;28;2724291;-77
2023/04/28 04:44:13;;;;;;;;;1.00;1.00;;;;;-150.52;100.00;63513.88;2056451;27;2724254;-77
2023/04/28 04:45:26;;;;;;;;;1.83;1.00;;;;;-150.52;100.00;63513.88;2062204;27;2725268;-77
2023/04/28 04:46:39;;;;;;;;;0.17;0.00;;;;;-150.52;100.00;63513.88;2039457;27;2724223;-77
2023/04/28 04:47:52;;;;;;;;;1.00;1.00;;;;;-150.52;100.00;63513.88;2031259;28;2721541;-77
2023/04/28 04:49:06;;;;;;;;;0.17;0.17;;;;;-150.52;100.00;63513.88;2046060;28;2731524;-78
2023/04/28 04:50:19;;;;;;;;;0.50;0.50;;;;;-150.52;100.00;63513.88;2029782;27;2739841;-78
2023/04/28 04:51:33;;;;;;;;;1.00;0.00;;;;;-150.52;100.00;63513.88;2034790;27;2726323;-77
2023/04/28 04:52:46;;;;;;;;;0.67;0.67;;;;;-150.52;100.00;63513.88;2039197;27;2728414;-77
2023/04/28 04:53:59;;;;;;;;;1.00;1.00;;;;;-150.52;100.00;63513.88;2061413;27;2730477;-77
2023/04/28 04:55:12;;;;;;;;;0.67;0.67;;;;;-150.52;100.00;63513.88;2031045;28;2722164;-77
2023/04/28 04:56:25;;;;;;;;;1.00;1.00;;;;;-150.52;100.00;63513.88;2055302;27;2729947;-77
2023/04/28 04:57:38;;;;;;;;;1.00;1.00;;;;;-150.52;100.00;63513.88;2030790;28;2724248;-77
2023/04/28 04:58:52;;;;;;;;;1.00;1.00;;;;;-150.52;100.00;63513.88;2024006;28;2725285;-77
2023/04/28 05:00:05;;;;;;;;;1.00;1.00;;;;;-150.52;100.00;63513.88;2032219;27;2729476;-77
2023/04/28 05:01:18;;;;;;;;;1.00;1.00;;;;;-150.52;100.00;63513.88;2060877;27;2739851;-77
2023/04/28 05:02:32;;;;;;;;;1.33;1.00;;;;;-150.52;100.00;63513.88;2037765;27;2720061;-78
2023/04/28 05:03:45;;;;;;;;;1.00;1.00;;;;;-150.52;100.00;63513.88;2062572;27;2720077;-77
2023/04/28 05:04:58;;;;;;;;;1.00;1.00;;;;;-150.52;100.00;63513.88;2039382;27;2731516;-77
2023/04/28 05:06:11;;;;;;;;;0.00;0.00;;;;;-150.52;100.00;63513.88;2030918;27;2731504;-77
2023/04/28 05:07:25;;;;;;;;;0.17;0.17;;;;;-150.52;100.00;63513.88;2054392;28;2729960;-77
2023/04/28 05:08:38;;;;;;;;;2.17;1.17;;;;;-150.52;100.00;63513.88;2032239;27;2727899;-77
2023/04/28 05:09:51;;;;;;;;;0.00;0.00;;;;;-150.52;100.00;63513.88;2029811;28;2733587;-77
2023/04/28 05:11:05;;;;;;;;;0.00;0.00;;;;;-150.52;100.00;63513.88;2032065;27;2733631;-77
2023/04/28 05:12:18;;;;;;;;;2.00;0.00;;;;;-150.52;100.00;63513.88;2029266;28;2729457;-77
2023/04/28 05:13:31;;;;;;;;;2.33;1.00;;;;;-150.52;100.00;63513.88;2024483;28;2727337;-77
2023/04/28 05:14:44;;;;;;;;;1.00;1.00;;;;;-150.52;100.00;63513.88;2034801;27;2725281;-77
2023/04/28 05:15:57;;;;;;;;;0.67;0.67;;;;;-150.52;100.00;63513.88;2062579;27;2725765;-77
2023/04/28 05:17:11;;;;;;;;;1.00;1.00;;;;;-150.52;100.00;63513.88;2030574;28;2731504;-77
2023/04/28 05:18:24;;;;;;;;;1.00;1.00;;;;;-150.52;100.00;63513.88;2026664;28;2723195;-77
2023/04/28 05:19:37;;;;;;;;;1.00;1.00;;;;;-150.52;100.00;63513.88;2033321;27;2730497;-77
2023/04/28 05:20:50;;;;;;;;;1.50;1.00;;;;;-150.52;100.00;63513.88;2063749;27;2725257;-77
2023/04/28 05:22:04;;;;;;;;;1.50;1.00;;;;;-150.52;100.00;63513.88;2030929;28;2729456;-77